Date,TemperatureHighF,TemperatureAvgF,TemperatureLowF,DewpointHighF,DewpointAvgF,DewpointLowF,HumidityHigh,HumidityAvg,HumidityLow,PressureMaxIn,PressureMinIn,WindSpeedMaxMPH,WindSpeedAvgMPH,GustSpeedMaxMPH,PrecipitationSumIn
2012-1-1,69,52,34,54,31,17,94,54,17,29.84,29.54,11,1,11,0.00
2012-1-2,54,44,33,18,6,-1,29,21,18,29.75,29.60,8,2,8,0.00
2012-1-3,38,30,24,2,-4,-8,24,22,20,29.99,29.69,8,2,8,0.00
2012-1-4,46,32,20,7,1,-8,44,28,20,30.04,29.72,10,1,10,0.00
2012-1-5,59,41,32,18,9,-1,52,27,17,29.78,29.66,5,0,5,0.00
2012-1-6,68,48,32,24,17,12,68,33,15,29.78,29.63,8,0,8,0.00
2012-1-7,71,54,42,36,23,14,50,31,17,29.72,29.60,6,0,8,0.00
2012-1-8,60,54,47,40,25,14,70,35,17,29.93,29.72,4,0,4,0.00
2012-1-9,47,44,43,44,42,38,97,92,72,29.93,29.72,0,0,2,0.00
2012-1-10,59,48,43,45,36,18,98,71,22,29.81,29.69,4,0,4,0.00
2012-1-11,60,51,45,59,45,32,98,80,46,29.69,29.22,9,0,10,0.00
2012-1-12,61,53,46,48,36,28,84,54,29,29.36,29.22,11,2,12,0.00
2012-1-13,56,40,33,33,8,2,41,26,19,29.72,29.22,12,2,12,0.00
2012-1-14,49,36,26,10,6,1,49,30,19,29.90,29.69,6,0,6,0.00
2012-1-15,46,36,28,24,12,5,70,38,20,30.19,29.75,8,1,8,0.00
2012-1-16,49,38,26,16,9,5,52,31,19,30.25,29.99,8,1,8,0.00
2012-1-17,66,54,43,53,32,16,87,45,26,30.01,29.51,13,2,13,0.00
2012-1-18,57,48,37,54,22,4,95,44,18,29.78,29.51,9,1,13,0.00
2012-1-19,53,40,28,18,9,4,41,28,18,29.90,29.72,9,0,9,0.00
2012-1-20,58,44,32,45,27,15,96,58,19,29.84,29.72,5,0,5,0.00
2012-1-21,58,51,37,56,49,27,98,92,68,29.87,29.54,8,1,9,0.00
2012-1-22,37,36,33,34,30,25,89,78,65,30.04,29.84,6,0,6,0.00
2012-1-23,52,44,37,52,41,34,98,90,74,29.96,29.66,4,0,5,0.00
2012-1-24,66,53,41,52,45,29,98,79,26,29.90,29.69,4,0,4,0.00
2012-1-25,68,47,33,44,28,14,98,60,15,29.99,29.87,5,0,5,0.00
2012-1-26,70,54,38,55,44,31,97,71,32,29.87,29.48,9,1,11,0.00
2012-1-27,71,62,46,58,39,17,90,49,17,29.72,29.31,11,1,12,0.00
2012-1-28,65,48,33,37,22,10,90,42,18,29.90,29.69,8,0,8,0.00
2012-1-29,59,44,31,14,7,0,41,22,17,30.04,29.87,6,0,6,0.00
2012-1-30,64,44,29,19,11,1,48,27,16,30.07,29.93,7,0,7,0.00
2012-1-31,72,53,38,20,14,8,40,22,14,30.04,29.90,8,1,8,0.00
2012-2-1,73,58,49,46,24,10,68,28,18,29.93,29.75,8,0,8,0.00
2012-2-2,73,59,47,52,32,9,85,45,15,29.99,29.66,7,0,7,0.00
2012-2-3,64,46,34,30,18,10,74,35,16,30.16,29.99,5,0,5,0.00
2012-2-4,54,47,37,50,36,21,97,69,37,30.01,29.72,5,0,6,0.00
2012-2-5,51,44,35,50,41,30,98,90,66,29.90,29.66,4,0,4,0.00
2012-2-6,50,41,32,36,27,15,98,63,26,29.96,29.78,4,0,4,0.00
2012-2-7,61,44,33,34,23,12,88,50,17,29.87,29.78,4,0,5,0.00
2012-2-8,53,40,30,38,27,17,94,64,27,29.87,29.72,4,0,4,0.00
2012-2-9,56,40,30,30,18,8,81,46,17,29.96,29.81,6,0,6,0.00
2012-2-10,50,41,30,36,25,20,89,55,31,29.87,29.57,6,0,6,0.00
2012-2-11,50,40,26,36,16,-9,80,41,19,29.69,29.39,13,2,13,0.00
2012-2-12,46,32,22,7,-3,-11,30,22,20,29.90,29.69,8,1,10,0.00
2012-2-13,58,38,22,13,6,1,56,29,17,29.96,29.78,6,0,6,0.00
2012-2-14,63,49,40,26,15,4,37,25,16,29.81,29.66,9,0,9,0.00
2012-2-15,69,50,36,38,22,10,88,40,15,29.93,29.75,5,0,6,0.00
2012-2-16,58,49,40,52,36,18,98,65,26,29.93,29.66,6,0,6,0.00
2012-2-17,67,52,41,50,35,18,98,62,17,29.78,29.69,6,0,6,0.00
2012-2-18,69,53,39,37,25,14,73,38,15,29.81,29.63,10,0,10,0.00
2012-2-19,52,42,33,47,34,22,95,77,38,29.66,29.39,5,0,6,0.00
2012-2-20,54,39,30,32,22,9,94,57,18,30.01,29.54,8,1,8,0.00
2012-2-21,60,44,28,40,26,16,88,56,24,30.01,29.66,9,1,11,0.00
2012-2-22,71,57,43,45,31,21,88,44,17,29.66,29.28,11,1,11,0.00
2012-2-23,76,60,44,57,42,31,98,59,21,29.39,29.28,9,1,9,0.00
2012-2-24,76,66,50,58,41,9,87,42,18,29.51,29.22,11,3,15,0.00
2012-2-25,57,46,38,13,7,1,29,20,17,29.99,29.51,9,2,9,0.00
2012-2-26,59,40,27,16,8,-1,50,27,17,30.16,29.99,8,0,8,0.00
2012-2-27,49,44,35,48,35,10,98,73,34,30.13,29.96,4,0,5,0.00
2012-2-28,72,53,41,49,32,13,98,57,14,30.07,29.96,5,0,7,0.00
2012-2-29,70,58,46,56,42,25,89,55,39,29.96,29.54,11,1,11,0.00
2012-3-1,83,68,50,57,40,18,79,43,13,29.57,29.42,10,1,10,0.00
2012-3-2,62,52,44,61,43,30,97,71,46,29.69,29.39,6,0,6,0.00
2012-3-3,65,58,50,63,51,31,98,78,38,29.45,29.28,9,0,11,0.00
2012-3-4,58,46,34,47,24,4,94,50,17,29.69,29.34,6,0,6,0.00
2012-3-5,58,43,32,20,10,1,60,27,17,30.16,29.60,10,1,10,0.00
2012-3-6,58,41,27,21,12,0,69,33,17,30.34,30.13,7,0,7,0.00
2012-3-7,70,53,34,39,27,17,78,42,17,30.31,30.10,8,1,10,0.00
2012-3-8,76,62,47,53,37,23,92,46,15,30.10,29.81,15,1,15,0.00
2012-3-9,61,55,40,58,34,11,95,52,17,29.99,29.75,8,0,8,0.00
2012-3-10,62,46,37,26,14,7,61,29,16,30.19,29.96,6,0,6,0.00
2012-3-11,68,49,32,29,16,8,75,30,15,30.25,30.10,5,0,8,0.00
2012-3-12,74,57,40,48,30,16,88,41,18,30.10,29.93,10,0,10,0.00
2012-3-13,80,66,58,50,42,33,72,43,21,29.93,29.81,8,0,9,0.00
2012-3-14,88,68,53,60,42,24,96,49,13,29.93,29.81,4,0,4,0.00
2012-3-15,86,68,53,55,38,24,88,41,13,29.96,29.87,6,0,7,0.00
2012-3-16,83,68,57,60,42,27,91,43,14,29.93,29.81,6,0,6,0.00
2012-3-17,82,68,57,64,49,33,98,61,19,29.93,29.84,5,0,5,0.00
2012-3-18,68,62,59,61,56,41,98,81,40,30.01,29.90,3,0,3,0.00
2012-3-19,77,63,54,64,53,36,98,77,24,29.96,29.81,0,0,3,0.00
2012-3-20,82,68,59,65,52,34,97,65,19,29.96,29.84,7,0,7,0.00
2012-3-21,73,66,59,65,56,46,98,74,39,30.01,29.90,4,0,4,0.00
2012-3-22,84,68,56,66,49,35,97,59,19,29.96,29.84,7,0,8,0.00
2012-3-23,86,72,61,64,49,32,96,54,16,29.87,29.69,8,0,8,0.00
2012-3-24,73,65,57,66,61,47,96,86,45,29.72,29.48,4,0,4,0.00
2012-3-25,68,61,57,59,51,41,97,72,39,29.54,29.39,7,0,7,0.00
2012-3-26,78,66,58,56,36,14,92,45,15,29.81,29.48,6,1,8,0.00
2012-3-27,66,53,42,20,12,5,31,19,15,30.04,29.81,5,0,5,0.00
2012-3-28,80,63,47,40,31,11,55,32,20,29.96,29.54,10,1,10,0.00
2012-3-29,85,70,57,50,32,18,70,29,11,29.63,29.54,7,0,7,0.00
2012-3-30,80,65,51,54,35,26,66,34,17,29.75,29.57,7,0,8,0.00
2012-3-31,76,65,55,65,57,38,96,79,27,29.60,29.42,11,0,12,0.00
2012-4-1,71,60,49,57,41,29,95,58,22,29.63,29.39,5,0,12,0.00
2012-4-2,76,65,51,50,34,16,65,35,14,29.63,29.34,6,0,6,0.00
2012-4-3,81,62,42,50,31,23,89,40,14,29.69,29.54,8,0,8,0.00
2012-4-4,90,70,58,64,49,32,96,57,15,29.54,29.36,8,0,8,0.00
2012-4-5,64,59,48,63,42,22,97,61,21,29.57,29.36,5,0,6,0.00
2012-4-6,65,52,42,44,30,11,93,52,16,29.78,29.54,8,1,8,0.00
2012-4-7,71,51,36,39,24,11,92,45,14,29.93,29.78,6,0,6,0.00
2012-4-8,78,58,38,45,25,16,90,36,13,29.81,29.60,6,0,8,0.00
2012-4-9,77,61,45,34,22,14,54,24,13,29.75,29.54,6,0,8,0.00
2012-4-10,76,61,45,37,23,15,59,26,13,29.66,29.45,8,1,8,0.00
2012-4-11,58,52,44,24,11,6,30,19,17,29.81,29.51,8,1,8,0.00
2012-4-12,65,49,33,29,17,8,74,32,15,29.87,29.78,7,1,7,0.00
2012-4-13,70,52,38,41,26,15,89,46,15,29.93,29.81,5,0,5,0.00
2012-4-14,79,61,42,38,28,18,80,37,12,29.99,29.84,10,1,10,0.00
2012-4-15,82,69,59,55,43,34,82,43,19,29.93,29.84,9,1,9,0.00
2012-4-16,86,73,61,50,40,28,66,34,14,29.93,29.81,9,1,9,0.00
2012-4-17,89,73,62,53,39,23,70,34,13,29.90,29.78,5,0,5,0.00
2012-4-18,70,62,55,53,38,22,88,46,20,29.87,29.75,4,0,5,0.00
2012-4-19,63,58,53,53,47,41,91,69,45,29.81,29.72,4,0,4,0.00
2012-4-20,72,62,52,57,47,38,94,62,31,29.72,29.57,6,0,7,0.00
2012-4-21,79,67,57,62,51,37,95,61,23,29.57,29.42,6,0,6,0.00
2012-4-22,65,56,49,60,54,47,96,92,62,29.45,29.19,4,0,6,0.00
2012-4-23,52,48,44,47,33,19,95,61,28,29.39,29.19,7,0,7,0.00
2012-4-24,64,52,39,31,20,12,66,33,16,29.48,29.36,6,1,8,0.00
2012-4-25,67,55,41,47,34,25,80,49,23,29.66,29.48,7,0,7,0.00
2012-4-26,76,64,55,64,49,35,95,64,24,29.60,29.48,9,0,10,0.00
2012-4-27,75,68,63,32,27,26,26,22,18,29.81,29.72,3,0,3,0.00
2012-4-28,64,59,56,42,34,25,58,39,24,29.90,29.75,4,0,4,0.00
2012-4-29,75,64,56,51,43,38,69,48,27,29.90,29.81,5,0,5,0.00
2012-4-30,78,68,61,60,52,44,93,61,31,29.96,29.84,7,0,7,0.00
2012-5-1,86,76,67,61,49,38,81,45,20,29.87,29.75,9,1,10,0.00
2012-5-2,90,77,68,61,51,40,78,45,19,29.84,29.75,6,0,7,0.00
2012-5-3,91,78,67,61,49,34,79,41,15,29.84,29.75,6,0,6,0.00
2012-5-4,87,75,62,65,49,38,92,47,19,29.78,29.63,7,0,8,0.00
2012-5-5,83,71,64,69,58,42,96,68,25,29.63,29.54,6,0,6,0.00
2012-5-6,72,68,62,67,60,50,96,78,49,29.78,29.60,6,0,6,0.00
2012-5-7,77,68,59,60,48,37,92,54,24,29.78,29.69,6,0,6,0.00
2012-5-8,79,70,61,52,44,36,72,42,23,29.75,29.60,6,0,7,0.00
2012-5-9,76,67,60,62,57,40,95,73,34,29.60,29.39,9,0,9,0.00
2012-5-10,69,61,52,57,39,22,93,52,17,29.66,29.39,6,0,7,0.00
2012-5-11,72,60,47,49,33,18,91,46,14,29.93,29.66,5,0,5,0.00
2012-5-12,75,62,48,50,36,23,87,44,16,30.01,29.93,6,0,6,0.00
2012-5-13,73,66,59,62,50,33,93,60,30,29.96,29.84,8,0,8,0.00
2012-5-14,73,66,62,66,61,47,97,87,40,29.87,29.69,5,0,7,0.00
2012-5-15,78,70,64,63,58,44,89,67,31,29.72,29.60,5,0,5,0.00
2012-5-16,81,72,66,60,53,-17,76,56,2,29.69,29.60,4,0,4,0.00
2012-5-17,79,69,62,61,54,43,79,60,31,29.78,29.63,5,0,5,0.00
2012-5-18,74,67,60,52,36,29,61,34,21,29.81,29.75,6,0,7,0.00
2012-5-19,75,65,54,43,33,27,61,32,18,29.84,29.75,6,0,6,0.00
2012-5-20,80,66,52,54,42,27,89,47,17,29.84,29.72,6,0,7,0.00
2012-5-21,79,71,66,60,52,40,80,54,26,29.75,29.60,4,0,4,0.00
2012-5-22,82,71,62,63,54,43,87,58,26,29.63,29.54,8,0,8,0.00
2012-5-23,80,69,63,62,56,40,84,66,26,29.69,29.54,5,0,6,0.00
2012-5-24,81,72,63,65,56,46,82,61,30,29.78,29.66,4,0,4,0.00
2012-5-25,85,74,63,64,54,45,80,55,26,29.84,29.75,4,0,5,0.00
2012-5-26,84,75,66,62,53,45,80,51,27,29.87,29.81,6,0,6,0.00
2012-5-27,83,73,66,67,59,50,80,63,33,29.90,29.81,4,0,4,0.00
2012-5-28,86,74,70,65,60,48,79,64,29,29.87,29.78,5,0,5,0.00
2012-5-29,86,76,71,64,39,-17,75,46,2,29.81,29.63,8,0,8,0.00
2012-5-30,78,72,65,64,43,-20,78,55,2,29.63,29.48,5,0,6,0.00
2012-5-31,88,75,64,61,18,-20,77,34,2,29.66,29.57,7,0,8,0.00
2012-6-1,87,73,66,65,48,-15,78,58,2,29.69,29.48,8,0,8,0.00
2012-6-2,66,62,58,59,55,51,81,80,72,29.60,29.54,0,0,0,0.00
2012-6-11,73,71,70,70,67,64,94,86,77,29.81,29.75,6,0,6,0.00
2012-6-12,79,74,70,78,70,64,98,89,64,29.75,29.60,6,0,6,0.00
2012-6-13,81,76,67,72,65,49,98,70,51,29.75,29.57,0,-822,6,0.00
2012-6-14,79,69,57,66,59,49,85,72,53,29.90,29.72,0,-999,0,0.00
2012-6-15,82,70,59,61,58,54,92,68,45,29.93,29.84,0,-999,0,0.00
2012-6-16,82,69,55,58,53,50,89,60,33,29.99,29.87,0,-999,0,0.00
2012-6-17,82,69,56,59,54,50,92,63,36,29.90,29.75,0,-999,0,0.00
2012-6-18,86,73,63,67,62,56,88,70,51,29.84,29.75,0,-999,0,0.00
2012-6-19,92,78,68,70,66,62,85,68,45,29.87,29.81,0,-999,0,0.00
2012-6-20,94,79,70,78,70,66,91,77,42,29.87,29.78,0,-999,0,0.00
2012-6-21,95,82,72,77,70,67,90,71,43,29.78,29.63,0,-999,0,0.00
2012-6-22,96,80,71,75,69,66,92,70,43,29.63,29.54,0,-999,0,0.00
2012-6-23,88,77,69,74,70,67,95,79,56,29.72,29.60,0,-999,0,0.00
2012-6-24,93,80,69,72,67,58,95,68,34,29.75,29.66,0,-999,0,0.00
2012-6-25,93,82,73,74,69,64,90,68,43,29.66,29.42,0,-999,0,0.00
2012-6-26,83,74,64,66,51,44,80,48,29,29.63,29.51,0,-999,0,0.00
2012-6-27,88,72,57,57,52,48,90,54,28,29.69,29.60,0,-999,0,0.00
2012-6-28,97,79,61,62,57,48,85,52,20,29.72,29.57,0,-999,0,0.00
2012-6-29,105,88,74,72,65,59,67,49,29,29.63,29.48,0,-999,0,0.00
2012-6-30,104,88,70,71,65,59,78,50,28,29.63,29.54,0,-999,0,0.00
2012-7-1,102,87,77,79,68,58,77,55,25,29.72,29.57,0,-999,0,0.00
2012-7-2,93,82,72,70,63,58,81,55,31,29.75,29.63,0,-999,0,0.00
2012-7-3,100,86,72,71,66,59,83,55,27,29.75,29.63,0,-999,0,0.00
2012-7-4,100,83,74,73,68,63,79,63,34,29.72,29.63,0,-999,0,0.00
2012-7-5,104,84,74,75,69,63,85,64,35,29.66,29.60,0,-999,0,0.00
2012-7-6,99,80,71,74,69,64,94,73,39,29.72,29.60,0,-999,0,0.00
2012-7-7,99,84,71,78,71,66,96,69,36,29.72,29.66,0,-999,0,0.00
2012-7-8,102,89,78,77,70,62,79,57,30,29.69,29.54,0,-999,0,0.00
2012-7-9,94,82,73,76,72,68,90,72,50,29.72,29.54,0,-999,0,0.00
2012-7-10,84,75,72,76,72,70,95,90,73,29.75,29.63,0,-999,0,0.00
2012-7-11,76,72,68,74,70,66,97,95,86,29.84,29.72,0,-999,0,0.00
2012-7-12,80,73,68,71,69,67,97,87,72,29.90,29.81,0,-999,0,0.00
2012-7-13,88,77,71,75,71,69,94,83,61,29.93,29.84,0,-999,0,0.00
2012-7-14,92,80,73,76,72,69,95,78,49,29.96,29.87,0,-999,0,0.00
2012-7-15,92,82,74,76,72,68,92,72,49,29.93,29.81,0,-999,0,0.00
2012-7-16,93,82,74,76,72,69,87,73,51,29.81,29.66,0,-999,0,0.00
2012-7-17,96,82,72,76,71,66,91,72,41,29.69,29.63,0,-999,0,0.00
2012-7-18,95,84,75,77,72,70,91,69,48,29.72,29.63,0,-999,0,0.00
2012-7-19,95,84,76,74,71,68,88,69,46,29.75,29.66,0,-999,0,0.00
2012-7-20,93,79,74,76,72,69,95,82,50,29.72,29.60,0,-999,0,0.00
2012-7-21,90,78,71,78,72,66,95,84,61,29.84,29.66,0,-999,0,0.00
2012-7-22,84,77,71,78,72,69,96,88,71,29.90,29.78,0,-999,0,0.00
2012-7-23,94,80,73,77,73,66,95,80,50,29.87,29.72,0,-999,0,0.00
2012-7-24,94,78,73,79,73,67,95,86,55,29.75,29.54,0,-999,0,0.00
2012-7-25,87,78,69,72,69,67,93,76,56,29.69,29.57,0,-999,0,0.00
2012-7-26,97,85,76,78,73,70,89,69,45,29.66,29.54,0,-999,0,0.00
2012-7-27,99,85,74,77,72,68,91,68,39,29.72,29.57,0,-999,0,0.00
2012-7-28,94,80,68,76,72,64,95,78,47,29.84,29.69,0,-999,0,0.00
2012-7-29,89,78,68,73,69,64,96,76,47,29.78,29.69,0,-999,0,0.00
2012-7-30,90,77,71,74,70,66,94,80,53,29.78,29.72,0,-999,0,0.00
2012-7-31,88,77,71,74,70,68,95,81,53,29.78,29.63,0,-999,0,0.00
2012-8-1,90,79,72,74,70,65,95,77,48,29.66,29.57,0,-999,0,0.00
2012-8-2,94,79,73,73,69,61,91,73,37,29.69,29.57,0,-999,0,0.00
2012-8-3,93,80,69,73,68,64,91,70,41,29.81,29.66,0,-999,0,0.00
2012-8-4,93,83,74,74,70,64,92,68,42,29.93,29.78,0,-999,0,0.00
2012-8-5,90,80,74,78,72,69,93,77,58,29.96,29.84,0,-999,0,0.00
2012-8-6,93,81,73,75,71,66,93,76,44,29.84,29.72,0,-999,0,0.00
2012-8-7,82,76,73,75,72,70,95,89,74,29.78,29.69,0,-999,0,0.00
2012-8-8,89,77,71,75,71,66,94,84,62,29.75,29.63,0,-999,0,0.00
2012-8-9,88,77,68,74,70,66,96,79,60,29.72,29.60,0,-999,0,0.00
2012-8-10,85,76,72,74,71,69,95,86,67,29.60,29.54,0,-999,0,0.00
2012-8-11,86,76,71,75,72,68,95,87,64,29.69,29.57,0,-999,0,0.00
2012-8-12,86,76,71,72,69,65,96,80,53,29.75,29.63,0,-999,0,0.00
2012-8-13,90,77,68,70,67,63,95,75,42,29.78,29.66,0,-999,0,0.00
2012-8-14,91,78,66,69,66,62,94,69,40,29.69,29.60,0,-999,0,0.00
2012-8-15,85,77,72,74,70,67,94,80,67,29.66,29.60,0,-999,0,0.00
2012-8-16,87,76,68,70,67,61,96,76,44,29.75,29.63,0,-999,0,0.00
2012-8-17,90,77,67,71,67,63,94,73,43,29.72,29.57,0,-999,0,0.00
2012-8-18,86,76,68,71,68,66,95,79,60,29.63,29.57,0,-999,0,0.00
2012-8-19,74,72,69,71,69,67,96,91,81,29.63,29.54,0,-999,0,0.00
2012-8-20,79,71,68,70,67,66,97,88,66,29.69,29.57,0,-999,0,0.00
2012-8-21,82,73,69,71,68,64,96,85,65,29.81,29.66,0,-999,0,0.00
2012-8-22,77,72,69,72,70,67,96,92,79,29.84,29.75,0,-999,0,0.00
2012-8-23,85,74,68,71,66,59,97,77,42,29.87,29.84,0,-999,0,0.00
2012-8-24,76,71,68,69,65,61,93,80,69,29.90,29.84,0,-999,0,0.00
2012-8-25,70,67,63,65,63,61,95,88,74,29.87,29.81,0,-999,0,0.00
2012-8-26,86,73,64,69,65,62,95,78,52,29.90,29.81,0,-999,0,0.00
2012-8-27,88,77,70,74,70,67,95,82,61,29.87,29.75,0,-999,0,0.00
2012-8-28,84,77,72,75,73,70,96,86,69,29.75,29.66,0,-999,0,0.00
2012-8-29,85,77,72,72,70,66,93,79,57,29.72,29.63,0,-999,0,0.00
2012-8-30,90,78,70,74,69,66,95,75,50,29.87,29.72,0,-999,0,0.00
2012-8-31,91,80,72,76,72,68,95,77,54,29.93,29.81,0,-999,0,0.00
2012-9-1,94,82,74,76,72,69,91,73,48,29.87,29.78,0,-999,0,0.00
2012-9-2,88,79,73,77,73,69,94,84,68,29.84,29.69,0,-999,0,0.00
2012-9-3,88,77,71,78,72,69,96,87,61,29.81,29.72,0,-999,0,0.00
2012-9-4,90,79,72,73,70,64,96,76,46,29.81,29.69,0,-999,0,0.00
2012-9-5,88,79,74,74,70,68,91,76,56,29.72,29.60,0,-999,0,0.00
2012-9-6,91,78,73,74,72,69,94,82,55,29.72,29.63,0,-999,0,0.00
2012-9-7,85,75,71,73,70,68,96,84,64,29.75,29.63,0,-999,0,0.00
2012-9-8,90,76,70,75,70,66,96,83,50,29.63,29.45,0,-999,0,0.00
2012-9-9,78,69,62,68,61,53,95,77,46,29.69,29.54,0,-999,0,0.00
2012-9-10,78,65,56,58,55,51,94,72,43,29.87,29.66,0,-999,0,0.00
2012-9-11,79,66,56,58,54,47,94,69,35,30.01,29.87,0,-999,0,0.00
2012-9-12,80,66,55,59,54,50,93,69,40,30.04,29.99,0,-999,0,0.00
2012-9-13,81,67,56,61,56,50,93,71,35,30.04,29.96,0,-999,0,0.00
2012-9-14,80,70,63,68,63,60,94,81,61,29.99,29.84,0,-999,0,0.00
2012-9-15,83,70,62,66,62,58,96,77,53,29.90,29.81,0,-999,0,0.00
2012-9-16,66,63,60,61,59,54,94,87,71,29.90,29.81,0,-999,0,0.00
2012-9-17,80,69,62,69,65,60,95,87,69,29.81,29.66,0,-999,0,0.00
2012-9-18,79,73,70,73,70,67,96,91,77,29.66,29.45,0,-999,0,0.00
2012-9-19,71,66,58,68,59,52,97,80,59,29.84,29.54,0,-999,0,0.00
2012-9-20,76,64,55,59,56,53,95,77,46,29.87,29.78,0,-999,0,0.00
2012-9-21,81,67,56,64,58,53,95,75,48,29.81,29.72,0,-999,0,0.00
2012-9-22,86,73,64,67,62,58,87,70,46,29.72,29.63,0,-999,0,0.00
2012-9-23,77,67,55,64,49,40,76,55,30,29.84,29.69,0,-999,0,0.00
2012-9-24,73,60,50,51,48,43,87,68,36,29.93,29.84,0,-999,0,0.00
2012-9-25,77,62,49,56,51,45,93,69,41,29.93,29.87,0,-999,0,0.00
2012-9-26,82,67,56,61,56,50,91,70,44,29.93,29.84,0,-999,0,0.00
2012-9-27,85,69,60,64,59,55,93,72,38,29.90,29.81,0,-999,0,0.00
2012-9-28,84,71,62,66,63,59,94,78,52,29.81,29.69,0,-999,0,0.00
2012-9-29,68,64,60,66,63,59,97,96,93,29.72,29.63,0,-999,0,0.00
2012-9-30,72,63,59,60,58,55,98,86,60,29.66,29.57,0,-999,0,0.00
2012-10-1,66,63,61,64,61,59,97,93,87,29.66,29.57,0,-999,0,0.00
2012-10-2,87,75,66,78,71,64,97,88,61,29.69,29.51,0,-999,0,0.00
2012-10-3,83,76,73,74,71,68,95,85,64,29.87,29.69,0,-999,0,0.00
2012-10-4,76,71,66,69,66,63,92,84,68,29.96,29.84,0,-999,0,0.00
2012-10-5,81,68,59,63,59,51,96,77,38,29.90,29.72,0,-999,0,0.00
2012-10-6,83,69,59,64,60,55,94,74,46,29.72,29.63,0,-999,0,0.00
2012-10-7,67,56,51,56,52,48,93,86,66,29.84,29.66,0,-999,0,0.00
2012-10-8,54,51,48,51,47,41,96,87,68,29.93,29.81,0,-999,0,0.00
2012-10-9,56,52,48,54,50,47,97,94,89,29.84,29.75,0,-999,0,0.00
2012-10-10,70,60,55,55,54,50,96,80,51,29.81,29.69,0,-999,0,0.00
2012-10-11,67,56,45,51,44,39,88,67,38,29.99,29.81,0,-999,0,0.00
2012-10-12,72,56,45,53,46,42,96,72,38,30.04,29.84,0,-999,0,0.00
2012-10-13,67,55,44,47,43,37,85,65,39,30.16,30.01,0,-999,0,0.00
2012-10-14,76,59,44,60,51,42,95,77,51,30.01,29.72,0,-999,0,0.00
2012-10-15,70,65,55,67,61,52,94,87,75,29.75,29.45,0,-999,0,0.00
2012-10-16,69,56,45,52,46,42,94,73,42,29.66,29.57,0,-999,0,0.00
2012-10-17,72,56,47,55,47,42,95,74,37,29.72,29.63,0,-999,0,0.00
2012-10-18,77,61,48,64,56,45,97,82,60,29.66,29.48,0,-999,0,0.00
2012-10-19,77,66,51,65,55,38,97,72,31,29.51,29.42,0,-999,0,0.00
2012-10-20,71,57,46,49,45,42,87,66,36,29.66,29.48,0,-999,0,0.00
2012-10-21,68,54,43,46,42,38,90,67,37,29.84,29.66,0,-999,0,0.00
2012-10-22,73,55,42,50,45,38,94,73,38,29.93,29.81,0,-999,0,0.00
2012-10-23,78,59,46,56,49,43,95,73,38,29.90,29.81,0,-999,0,0.00
2012-10-24,80,62,51,59,53,48,95,74,40,29.90,29.78,0,-999,0,0.00
2012-10-25,81,66,52,63,56,50,95,74,45,29.87,29.78,0,-999,0,0.00
2012-10-26,69,62,55,63,59,53,97,88,78,29.81,29.66,0,-999,0,0.00
2012-10-27,66,64,62,62,58,53,94,82,71,29.66,29.39,0,-999,0,0.00
2012-10-28,64,60,56,53,49,45,78,67,52,29.39,29.28,0,-999,0,0.00
2012-10-29,56,47,42,49,42,34,94,81,59,29.31,29.04,0,-999,0,0.00
2012-10-30,50,46,42,40,33,30,92,61,46,29.31,28.98,0,-999,0,0.00
2012-10-31,55,47,39,37,34,32,78,61,47,29.45,29.31,0,-999,0,0.00
2012-11-1,59,49,39,38,35,33,80,60,40,29.54,29.42,0,-999,0,0.00
2012-11-2,66,47,35,41,34,31,87,64,36,29.66,29.48,0,-999,0,0.00
2012-11-3,61,45,34,38,33,30,89,65,36,29.81,29.63,0,-999,0,0.00
2012-11-4,57,48,40,39,37,34,81,67,49,29.75,29.66,0,-999,0,0.00
2012-11-5,57,46,36,41,34,30,81,64,39,29.81,29.69,0,-999,0,0.00
2012-11-6,47,40,34,33,30,28,86,68,53,29.84,29.60,0,-999,0,0.00
2012-11-7,54,45,37,35,30,28,73,58,41,29.63,29.48,0,-999,0,0.00
2012-11-8,62,46,34,35,28,22,87,54,25,29.78,29.60,0,-999,0,0.00
2012-11-9,65,46,31,35,30,22,77,57,33,29.93,29.78,0,-999,0,0.00
2012-11-10,72,49,35,43,35,31,90,63,25,30.07,29.90,0,-999,0,0.00
2012-11-11,74,55,39,51,43,35,87,67,35,30.16,30.04,0,-999,0,0.00
2012-11-12,73,63,50,60,55,48,95,77,53,30.10,29.87,0,-999,0,0.00
2012-11-13,65,52,41,59,48,38,94,86,72,30.07,29.84,0,-999,0,0.00
2012-11-14,53,43,34,38,32,29,90,66,42,30.16,30.01,0,-999,0,0.00
2012-11-15,45,42,38,43,36,29,94,79,63,30.01,29.87,0,-999,0,0.00
2012-11-16,58,46,38,43,38,32,96,74,46,30.04,29.90,0,-999,0,0.00
2012-11-17,58,45,34,35,31,27,88,62,35,30.16,30.04,0,-999,0,0.00
2012-11-18,56,51,45,44,42,35,83,71,61,30.13,30.01,0,-999,0,0.00
2012-11-19,58,52,49,46,42,41,76,70,61,30.01,29.84,0,-999,0,0.00
2012-11-20,60,50,42,46,42,38,86,73,53,29.87,29.72,0,-999,0,0.00
2012-11-21,60,45,35,44,35,30,96,71,40,29.84,29.75,0,-999,0,0.00
2012-11-22,62,43,31,36,29,25,89,61,29,29.93,29.81,0,-999,0,0.00
2012-11-23,66,47,30,40,32,24,88,58,33,29.84,29.57,0,-999,0,0.00
2012-11-24,55,45,32,32,22,14,54,41,32,29.81,29.57,0,-999,0,0.00
2012-11-25,51,37,24,25,19,13,73,48,31,29.87,29.69,0,-999,0,0.00
2012-11-26,67,47,31,33,26,20,71,46,24,29.87,29.75,0,-999,0,0.00
2012-11-27,57,48,40,42,34,26,85,60,43,29.90,29.78,0,-999,0,0.00
2012-11-28,54,41,30,37,31,25,91,68,43,30.04,29.90,0,-999,0,0.00
2012-11-29,56,38,26,34,26,21,88,65,33,30.10,29.99,0,-999,0,0.00
2012-11-30,63,44,31,36,30,26,87,63,34,30.07,29.93,0,-999,0,0.00
2012-12-1,66,46,34,46,36,30,89,70,41,30.07,29.96,0,-999,0,0.00
2012-12-2,68,52,38,52,44,34,93,74,47,30.07,29.93,0,-999,0,0.00
2012-12-3,75,61,52,56,52,48,94,74,44,29.99,29.90,0,-999,0,0.00
2012-12-4,69,58,46,56,50,44,98,77,53,29.99,29.87,0,-999,0,0.00
2012-12-5,67,59,46,57,52,43,90,80,66,29.87,29.78,0,-999,0,0.00
2012-12-6,53,46,40,45,33,27,96,61,41,30.01,29.87,0,-999,0,0.00
2012-12-7,57,50,46,49,41,31,92,71,55,29.87,29.69,0,-999,0,0.00
2012-12-8,64,55,51,54,51,49,96,86,65,29.75,29.63,0,-999,0,0.00
2012-12-9,71,62,53,62,56,51,96,83,62,29.81,29.69,0,-999,0,0.00
2012-12-10,69,66,63,64,59,55,98,81,62,29.69,29.39,0,-999,0,0.00
2012-12-11,64,58,51,57,44,34,92,60,42,29.81,29.42,0,-999,0,0.00
2012-12-12,51,45,39,36,32,28,88,61,47,29.99,29.81,0,-999,0,0.00
2012-12-13,52,42,33,36,33,29,91,74,50,30.04,29.93,0,-999,0,0.00
2012-12-14,58,39,28,39,28,24,92,69,33,30.04,29.90,0,-999,0,0.00
2012-12-15,58,45,32,39,32,26,88,63,33,29.96,29.78,0,-999,0,0.00
2012-12-16,58,54,49,55,49,34,97,85,50,29.78,29.60,0,-999,0,0.00
2012-12-17,62,58,55,58,55,54,98,90,76,29.60,29.31,0,-999,0,0.00
2012-12-18,62,54,38,55,43,30,94,68,37,29.60,29.36,0,-999,0,0.00
2012-12-19,67,47,34,40,33,28,84,61,33,29.81,29.57,0,-999,0,0.00
2012-12-20,62,51,39,61,43,33,97,73,55,29.84,29.19,0,-999,0,0.00
2012-12-21,58,44,38,51,26,17,79,50,38,29.48,29.19,0,-999,0,0.00
2012-12-22,51,40,32,24,20,17,61,44,33,29.78,29.48,0,-999,0,0.00
2012-12-23,55,40,26,27,22,17,76,50,29,29.84,29.69,0,-999,0,0.00
2012-12-24,53,49,44,46,35,27,84,59,44,29.72,29.57,0,-999,0,0.00
2012-12-25,63,53,45,46,41,34,88,67,39,29.78,29.60,0,-999,0,0.00
2012-12-26,50,45,39,48,42,36,98,89,68,29.75,29.13,0,-999,0,0.00
2012-12-27,52,42,35,37,29,23,92,62,43,29.75,29.31,0,-999,0,0.00
2012-12-28,46,38,28,31,25,21,79,60,44,29.84,29.66,0,-999,0,0.00
2012-12-29,52,44,38,44,34,24,92,70,47,29.66,29.34,0,-999,0,0.00
2012-12-30,48,38,29,25,20,18,64,48,37,30.04,29.60,0,-999,0,0.00
2012-12-31,54,40,25,27,22,18,79,52,31,30.04,29.75,0,-999,0,0.00
2013-1-1,50,47,43,49,39,24,96,75,41,29.78,29.60,0,-999,0,0.00